createdAt,value
2023-04-08T00:00:07.785Z,6.17
2023-04-08T00:05:29.746Z,6.05
2023-04-08T00:10:51.590Z,6.09
2023-04-08T00:16:13.513Z,6.23
2023-04-08T00:21:35.453Z,6.19
2023-04-08T00:26:57.346Z,6.17
2023-04-08T00:32:19.262Z,6.13
2023-04-08T00:37:41.207Z,6.18
2023-04-08T00:43:03.116Z,5.89
2023-04-08T00:48:25.197Z,6.00
2023-04-08T00:53:47.288Z,5.93
2023-04-08T00:59:09.313Z,5.81
2023-04-08T01:04:56.019Z,5.92
2023-04-08T01:10:22.543Z,5.84
2023-04-08T01:15:45.353Z,5.54
2023-04-08T01:21:08.044Z,5.68
2023-04-08T01:26:30.871Z,5.65
2023-04-08T01:31:54.085Z,5.54
2023-04-08T01:37:16.710Z,5.43
2023-04-08T01:42:40.635Z,5.37
2023-04-08T01:48:03.435Z,5.31
2023-04-08T01:53:25.586Z,5.29
2023-04-08T01:58:52.713Z,5.14
2023-04-08T02:04:14.992Z,5.13
2023-04-08T02:09:37.089Z,5.03
2023-04-08T02:14:59.125Z,4.79
2023-04-08T02:20:27.311Z,4.69
2023-04-08T02:25:50.392Z,4.63
2023-04-08T02:31:13.048Z,4.42
2023-04-08T02:36:35.194Z,4.42
2023-04-08T02:41:57.140Z,4.40
2023-04-08T02:47:18.984Z,4.12
2023-04-08T02:52:40.829Z,3.94
2023-04-08T02:58:02.733Z,3.85
2023-04-08T03:03:24.674Z,3.63
2023-04-08T03:08:46.594Z,3.56
2023-04-08T03:14:08.575Z,3.55
2023-04-08T03:19:30.442Z,3.39
2023-04-08T03:24:52.463Z,3.19
2023-04-08T03:30:14.411Z,3.13
2023-04-08T03:35:36.717Z,3.07
2023-04-08T03:40:58.704Z,3.06
2023-04-08T03:46:20.589Z,2.92
2023-04-08T03:51:42.496Z,2.91
2023-04-08T03:57:04.444Z,2.79
2023-04-08T04:02:26.569Z,2.79
2023-04-08T04:07:48.673Z,2.88
2023-04-08T04:13:10.641Z,2.98
2023-04-08T04:18:32.537Z,3.45
2023-04-08T04:23:54.751Z,3.87
2023-04-08T04:29:16.641Z,5.23
2023-04-08T04:34:38.752Z,6.80
2023-04-08T04:40:00.579Z,9.04
2023-04-08T04:45:22.437Z,11.93
2023-04-08T04:50:44.425Z,12.99
2023-04-08T04:56:06.491Z,14.79
2023-04-08T05:01:28.478Z,15.31
2023-04-08T05:06:50.615Z,16.48
2023-04-08T05:12:12.479Z,15.54
2023-04-08T05:17:34.354Z,15.17
2023-04-08T05:22:56.353Z,13.01
2023-04-08T05:28:18.237Z,12.70
2023-04-08T05:33:40.035Z,13.17
2023-04-08T05:39:03.321Z,13.86
2023-04-08T05:44:25.468Z,16.06
2023-04-08T05:49:47.887Z,19.43
2023-04-08T05:55:11.760Z,22.44
2023-04-08T06:00:33.903Z,23.07
2023-04-08T06:05:55.814Z,23.67
2023-04-08T06:11:18.310Z,25.36
2023-04-08T06:16:40.193Z,22.77
2023-04-08T06:22:02.076Z,24.00
2023-04-08T06:27:24.028Z,23.56
2023-04-08T06:32:45.961Z,25.53
2023-04-08T06:38:07.825Z,23.60
2023-04-08T06:43:29.709Z,23.38
2023-04-08T06:48:51.869Z,23.63
2023-04-08T06:54:13.970Z,22.85
2023-04-08T06:59:35.805Z,24.40
2023-04-08T07:04:57.675Z,25.41
2023-04-08T07:10:19.625Z,26.50
2023-04-08T07:15:41.650Z,27.91
2023-04-08T07:21:03.683Z,25.50
2023-04-08T07:26:25.576Z,25.39
2023-04-08T07:31:47.472Z,26.85
2023-04-08T07:37:09.396Z,25.36
2023-04-08T07:42:31.256Z,24.99
2023-04-08T07:47:53.126Z,23.96
2023-04-08T07:53:15.106Z,23.87
2023-04-08T07:58:37.172Z,24.03
2023-04-08T08:03:59.515Z,25.32
2023-04-08T08:09:21.660Z,26.12
2023-04-08T08:14:43.566Z,24.17
2023-04-08T08:20:06.327Z,24.43
2023-04-08T08:25:28.201Z,25.03
2023-04-08T08:30:50.050Z,21.98
2023-04-08T08:36:12.164Z,24.88
2023-04-08T08:41:34.694Z,23.01
2023-04-08T08:46:56.725Z,23.25
2023-04-08T08:52:18.823Z,23.55
2023-04-08T08:57:40.700Z,23.14
2023-04-08T09:03:19.120Z,24.61
2023-04-08T09:08:41.471Z,24.57
2023-04-08T09:14:03.540Z,24.03
2023-04-08T09:19:25.394Z,22.47
2023-04-08T09:24:47.613Z,24.44
2023-04-08T09:30:18.804Z,21.96
2023-04-08T09:35:40.768Z,22.19
2023-04-08T09:41:07.560Z,19.79
2023-04-08T09:46:36.700Z,20.55
2023-04-08T09:52:07.395Z,20.83
2023-04-08T09:57:50.491Z,19.81
2023-04-08T10:03:30.063Z,21.83
2023-04-08T10:08:52.091Z,18.12
2023-04-08T10:14:13.972Z,18.12
2023-04-08T10:19:40.044Z,17.78
2023-04-08T10:25:17.658Z,16.81
2023-04-08T10:30:41.465Z,17.44
2023-04-08T10:36:11.863Z,16.47
2023-04-08T10:41:33.859Z,16.20
2023-04-08T10:46:55.863Z,15.50
2023-04-08T10:52:17.781Z,15.25
2023-04-08T10:57:39.718Z,15.25
2023-04-08T11:03:07.005Z,14.61
2023-04-08T11:08:33.862Z,14.13
2023-04-08T11:13:57.103Z,14.65
2023-04-08T11:19:20.037Z,14.99
2023-04-08T11:24:42.337Z,14.54
2023-04-08T11:30:04.852Z,14.49
2023-04-08T11:35:30.282Z,15.30
2023-04-08T11:40:56.283Z,15.22
2023-04-08T11:46:18.257Z,15.15
2023-04-08T11:52:00.121Z,14.45
2023-04-08T11:57:30.891Z,14.51
2023-04-08T12:02:52.865Z,14.66
2023-04-08T12:08:14.824Z,15.38
2023-04-08T12:13:36.680Z,15.72
2023-04-08T12:18:58.534Z,15.32
2023-04-08T12:24:20.469Z,14.79
2023-04-08T12:29:42.484Z,14.84
2023-04-08T12:35:04.711Z,15.56
2023-04-08T12:40:26.516Z,15.79
2023-04-08T12:45:48.411Z,15.26
2023-04-08T12:51:10.406Z,15.54
2023-04-08T12:56:32.452Z,15.47
2023-04-08T13:01:54.572Z,15.83
2023-04-08T13:07:16.516Z,15.85
2023-04-08T13:12:38.346Z,16.38
2023-04-08T13:18:00.292Z,17.11
2023-04-08T13:23:22.123Z,16.49
2023-04-08T13:28:55.901Z,15.81
2023-04-08T13:34:18.911Z,15.62
2023-04-08T13:39:40.740Z,15.57
2023-04-08T13:45:02.733Z,15.74
2023-04-08T13:50:24.697Z,15.43
2023-04-08T13:55:46.511Z,15.20
2023-04-08T14:01:08.392Z,15.19
2023-04-08T14:06:30.230Z,14.86
2023-04-08T14:11:52.086Z,15.03
2023-04-08T14:17:14.102Z,15.00
2023-04-08T14:22:36.079Z,14.69
2023-04-08T14:27:59.023Z,14.72
2023-04-08T14:33:20.977Z,14.58
2023-04-08T14:38:42.780Z,14.93
2023-04-08T14:44:04.795Z,15.17
2023-04-08T14:49:26.725Z,14.62
2023-04-08T14:54:48.741Z,14.50
2023-04-08T15:00:11.012Z,14.38
2023-04-08T15:05:35.462Z,14.29
2023-04-08T15:10:58.523Z,14.39
2023-04-08T15:16:20.439Z,14.43
2023-04-08T15:21:42.345Z,14.21
2023-04-08T15:27:04.190Z,14.28
2023-04-08T15:32:26.295Z,14.07
2023-04-08T15:37:48.161Z,14.33
2023-04-08T15:43:10.121Z,14.16
2023-04-08T15:48:32.014Z,13.95
2023-04-08T15:53:53.840Z,13.96
2023-04-08T15:59:15.691Z,13.98
2023-04-08T16:04:37.637Z,13.98
2023-04-08T16:09:59.546Z,13.95
2023-04-08T16:15:21.487Z,13.85
2023-04-08T16:20:43.355Z,13.77
2023-04-08T16:26:05.530Z,13.74
2023-04-08T16:31:27.400Z,13.55
2023-04-08T16:36:49.333Z,13.40
2023-04-08T16:42:11.228Z,13.49
2023-04-08T16:47:33.836Z,13.35
2023-04-08T16:52:55.855Z,13.13
2023-04-08T16:58:17.693Z,13.22
2023-04-08T17:03:39.988Z,13.01
2023-04-08T17:09:02.671Z,12.94
2023-04-08T17:14:24.701Z,13.02
2023-04-08T17:19:46.618Z,12.92
2023-04-08T17:25:08.855Z,12.83
2023-04-08T17:30:30.702Z,12.83
2023-04-08T17:35:53.361Z,12.63
2023-04-08T17:41:21.582Z,12.40
2023-04-08T17:46:52.064Z,12.24
2023-04-08T17:52:13.879Z,12.29
2023-04-08T17:57:35.764Z,11.83
2023-04-08T18:02:57.783Z,11.39
2023-04-08T18:08:19.770Z,11.04
2023-04-08T18:13:41.671Z,10.87
2023-04-08T18:19:03.519Z,10.48
2023-04-08T18:24:25.392Z,10.17
2023-04-08T18:29:47.216Z,9.82
2023-04-08T18:35:09.660Z,9.63
2023-04-08T18:40:31.624Z,9.62
2023-04-08T18:45:53.477Z,9.64
2023-04-08T18:51:16.009Z,9.55
2023-04-08T18:56:37.905Z,9.65
2023-04-08T19:01:59.932Z,9.70
2023-04-08T19:07:22.061Z,9.43
2023-04-08T19:12:43.913Z,9.48
2023-04-08T19:18:05.813Z,9.56
2023-04-08T19:23:27.641Z,9.62
2023-04-08T19:28:49.884Z,9.67
2023-04-08T19:34:11.916Z,9.54
2023-04-08T19:39:33.900Z,9.53
2023-04-08T19:44:55.832Z,9.79
2023-04-08T19:50:17.694Z,9.75
2023-04-08T19:55:39.557Z,9.84
2023-04-08T20:01:01.494Z,9.87
2023-04-08T20:06:23.339Z,9.87
2023-04-08T20:11:45.265Z,9.74
2023-04-08T20:17:07.330Z,9.73
2023-04-08T20:22:29.150Z,9.80
2023-04-08T20:27:50.992Z,9.85
2023-04-08T20:33:12.926Z,9.64
2023-04-08T20:38:34.717Z,9.66
2023-04-08T20:43:56.519Z,9.68
2023-04-08T20:49:18.799Z,9.64
2023-04-08T20:54:40.662Z,9.63
2023-04-08T21:00:03.043Z,9.62
2023-04-08T21:05:25.221Z,9.39
2023-04-08T21:10:47.143Z,9.41
2023-04-08T21:16:09.338Z,9.32
2023-04-08T21:21:31.155Z,9.33
2023-04-08T21:26:53.434Z,9.39
2023-04-08T21:32:15.310Z,9.31
2023-04-08T21:37:37.279Z,9.18
2023-04-08T21:42:59.511Z,9.25
2023-04-08T21:48:21.441Z,9.39
2023-04-08T21:53:43.702Z,9.53
2023-04-08T21:59:05.640Z,9.33
2023-04-08T22:04:27.478Z,9.34
2023-04-08T22:09:49.284Z,9.35
2023-04-08T22:15:11.451Z,9.29
2023-04-08T22:20:33.281Z,9.33
2023-04-08T22:25:55.158Z,9.39
2023-04-08T22:31:17.022Z,9.24
2023-04-08T22:36:38.869Z,9.32
2023-04-08T22:42:00.705Z,9.28
2023-04-08T22:47:22.582Z,9.27
2023-04-08T22:52:44.420Z,9.41
2023-04-08T22:58:06.327Z,9.55
2023-04-08T23:03:28.272Z,9.57
2023-04-08T23:08:50.291Z,9.61
2023-04-08T23:14:12.353Z,9.67
2023-04-08T23:19:34.160Z,9.64
2023-04-08T23:24:56.344Z,9.69
2023-04-08T23:30:18.360Z,9.68
2023-04-08T23:35:40.241Z,9.71
2023-04-08T23:41:02.057Z,9.71
2023-04-08T23:46:23.910Z,9.81
2023-04-08T23:51:45.754Z,9.77
2023-04-08T23:57:07.575Z,9.67
